Time,TemperatureF,DewpointF,PressureIn,WindDirection,WindDirectionDegrees,WindSpeedMPH,WindSpeedGustMPH,Humidity,HourlyPrecipIn,Conditions,Clouds,dailyrainin,SoftwareType,DateUTC
2013-10-08 00:00:00,62.6,42.6,30.04,South,185,0.0,0.0,48,0.00,,,0.00,meteohub,2013-10-08 05:00:00,
2013-10-08 00:05:00,62.6,42.6,30.04,South,185,0.0,0.0,48,0.00,,,0.00,meteohub,2013-10-08 05:05:00,
2013-10-08 00:10:00,62.4,42.4,30.04,South,185,0.0,0.0,48,0.00,,,0.00,meteohub,2013-10-08 05:10:00,
2013-10-08 00:15:00,62.4,42.4,30.04,South,185,0.0,0.0,48,0.00,,,0.00,meteohub,2013-10-08 05:15:00,
2013-10-08 00:20:00,62.4,42.4,30.04,South,185,0.0,0.0,48,0.00,,,0.00,meteohub,2013-10-08 05:20:00,
2013-10-08 00:25:00,62.4,43.0,30.04,South,185,0.0,0.0,49,0.00,,,0.00,meteohub,2013-10-08 05:25:00,
2013-10-08 00:30:00,62.2,42.3,30.04,South,185,0.0,0.0,48,0.00,,,0.00,meteohub,2013-10-08 05:30:00,
2013-10-08 00:35:00,62.2,42.3,30.04,South,185,0.0,0.0,48,0.00,,,0.00,meteohub,2013-10-08 05:35:00,
2013-10-08 00:40:00,62.1,42.6,30.04,South,185,0.0,0.0,49,0.00,,,0.00,meteohub,2013-10-08 05:40:00,
2013-10-08 00:45:00,61.9,42.4,30.03,South,185,0.0,0.0,49,0.00,,,0.00,meteohub,2013-10-08 05:45:00,
2013-10-08 00:50:00,61.7,42.3,30.03,South,185,0.0,0.0,49,0.00,,,0.00,meteohub,2013-10-08 05:50:00,
2013-10-08 00:55:00,61.5,42.3,30.03,South,185,0.0,0.0,49,0.00,,,0.00,meteohub,2013-10-08 05:55:00,
2013-10-08 01:00:00,61.5,42.3,30.03,South,185,0.0,0.0,49,0.00,,,0.00,meteohub,2013-10-08 06:00:00,
2013-10-08 01:05:00,61.3,42.1,30.03,South,185,0.0,0.0,49,0.00,,,0.00,meteohub,2013-10-08 06:05:00,
2013-10-08 01:10:00,61.5,42.3,30.03,South,185,0.0,0.0,49,0.00,,,0.00,meteohub,2013-10-08 06:10:00,
2013-10-08 01:16:00,61.3,42.6,30.03,South,185,0.0,0.0,50,0.00,,,0.00,meteohub,2013-10-08 06:16:00,
2013-10-08 01:21:00,61.3,42.1,30.03,South,185,0.0,0.0,49,0.00,,,0.00,meteohub,2013-10-08 06:21:00,
2013-10-08 01:26:00,61.2,42.4,30.03,South,185,0.0,0.0,50,0.00,,,0.00,meteohub,2013-10-08 06:26:00,
2013-10-08 01:31:00,61.2,41.9,30.03,South,185,0.0,0.0,49,0.00,,,0.00,meteohub,2013-10-08 06:31:00,
2013-10-08 01:36:00,61.0,42.3,30.03,South,185,0.0,0.0,50,0.00,,,0.00,meteohub,2013-10-08 06:36:00,
2013-10-08 01:41:00,61.0,42.3,30.03,South,185,0.0,0.0,50,0.00,,,0.00,meteohub,2013-10-08 06:41:00,
2013-10-08 01:46:00,61.0,42.3,30.03,South,185,0.0,0.0,50,0.00,,,0.00,meteohub,2013-10-08 06:46:00,
2013-10-08 01:51:00,61.0,42.3,30.03,South,185,0.0,0.0,50,0.00,,,0.00,meteohub,2013-10-08 06:51:00,
2013-10-08 01:56:00,60.6,41.9,30.03,South,185,0.0,0.0,50,0.00,,,0.00,meteohub,2013-10-08 06:56:00,
2013-10-08 02:01:00,60.6,41.9,30.03,South,185,0.0,0.0,50,0.00,,,0.00,meteohub,2013-10-08 07:01:00,
2013-10-08 02:06:00,60.4,41.7,30.03,South,185,0.0,0.0,50,0.00,,,0.00,meteohub,2013-10-08 07:06:00,
2013-10-08 02:11:00,60.4,41.7,30.03,South,185,0.0,0.0,50,0.00,,,0.00,meteohub,2013-10-08 07:11:00,
2013-10-08 02:16:00,60.4,41.7,30.03,South,185,0.0,0.0,50,0.00,,,0.00,meteohub,2013-10-08 07:16:00,
2013-10-08 02:21:00,60.3,41.5,30.03,South,185,0.0,0.0,50,0.00,,,0.00,meteohub,2013-10-08 07:21:00,
2013-10-08 02:26:00,60.3,41.5,30.03,South,185,0.0,0.0,50,0.00,,,0.00,meteohub,2013-10-08 07:26:00,
2013-10-08 02:31:00,60.1,41.9,30.03,South,185,0.0,0.0,51,0.00,,,0.00,meteohub,2013-10-08 07:31:00,
2013-10-08 02:36:00,59.7,41.5,30.03,South,185,0.0,0.0,51,0.00,,,0.00,meteohub,2013-10-08 07:36:00,
2013-10-08 02:41:00,59.7,41.5,30.03,South,185,0.0,0.0,51,0.00,,,0.00,meteohub,2013-10-08 07:41:00,
2013-10-08 02:46:00,59.5,41.9,30.03,South,185,0.0,0.0,52,0.00,,,0.00,meteohub,2013-10-08 07:46:00,
2013-10-08 02:51:00,59.4,41.7,30.03,South,185,0.0,0.0,52,0.00,,,0.00,meteohub,2013-10-08 07:51:00,
2013-10-08 02:56:00,59.4,42.3,30.03,South,185,0.0,0.0,53,0.00,,,0.00,meteohub,2013-10-08 07:56:00,
2013-10-08 03:01:00,59.0,41.9,30.03,South,185,0.0,0.0,53,0.00,,,0.00,meteohub,2013-10-08 08:01:00,
2013-10-08 03:06:00,58.8,41.7,30.03,South,185,0.0,0.0,53,0.00,,,0.00,meteohub,2013-10-08 08:06:00,
2013-10-08 03:11:00,58.6,42.4,30.02,South,185,0.0,0.0,55,0.00,,,0.00,meteohub,2013-10-08 08:11:00,
2013-10-08 03:16:00,58.3,43.5,30.02,South,185,0.0,0.0,58,0.00,,,0.00,meteohub,2013-10-08 08:16:00,
2013-10-08 03:21:00,57.7,43.9,30.02,South,185,0.0,0.0,60,0.00,,,0.00,meteohub,2013-10-08 08:21:00,
2013-10-08 03:26:00,57.6,44.2,30.02,South,185,0.0,0.0,61,0.00,,,0.00,meteohub,2013-10-08 08:26:00,
2013-10-08 03:31:00,57.2,43.9,30.02,South,185,0.0,0.0,61,0.00,,,0.00,meteohub,2013-10-08 08:31:00,
2013-10-08 03:36:00,56.8,43.5,30.02,South,185,0.0,0.0,61,0.00,,,0.00,meteohub,2013-10-08 08:36:00,
2013-10-08 03:41:00,56.7,43.7,30.02,South,185,0.0,0.0,62,0.00,,,0.00,meteohub,2013-10-08 08:41:00,
2013-10-08 03:46:00,56.5,44.1,30.02,South,185,0.0,0.0,63,0.00,,,0.00,meteohub,2013-10-08 08:46:00,
2013-10-08 03:51:00,56.1,44.1,30.02,South,185,0.0,0.0,64,0.00,,,0.00,meteohub,2013-10-08 08:51:00,
2013-10-08 03:56:00,55.9,44.8,30.02,South,185,0.0,0.0,66,0.00,,,0.00,meteohub,2013-10-08 08:56:00,
2013-10-08 04:02:00,55.9,43.9,30.02,South,185,0.0,0.0,64,0.00,,,0.00,meteohub,2013-10-08 09:02:00,
2013-10-08 04:07:00,55.6,44.4,30.02,South,185,0.0,0.0,66,0.00,,,0.00,meteohub,2013-10-08 09:07:00,
2013-10-08 04:12:00,55.0,45.1,30.02,South,185,0.0,4.0,69,0.00,,,0.00,meteohub,2013-10-08 09:12:00,
2013-10-08 04:17:00,54.7,45.1,30.01,South,185,0.0,4.0,70,0.00,,,0.00,meteohub,2013-10-08 09:17:00,
2013-10-08 04:22:00,54.3,44.8,30.02,South,185,0.0,4.0,70,0.00,,,0.00,meteohub,2013-10-08 09:22:00,
2013-10-08 04:27:00,54.1,44.6,30.01,South,185,0.0,4.0,70,0.00,,,0.00,meteohub,2013-10-08 09:27:00,
2013-10-08 04:32:00,54.1,44.6,30.01,South,185,0.0,4.0,70,0.00,,,0.00,meteohub,2013-10-08 09:32:00,
2013-10-08 04:37:00,54.1,44.6,30.01,South,185,0.0,0.0,70,0.00,,,0.00,meteohub,2013-10-08 09:37:00,
2013-10-08 04:42:00,54.0,45.1,30.01,South,185,0.0,0.0,72,0.00,,,0.00,meteohub,2013-10-08 09:42:00,
2013-10-08 04:47:00,53.8,45.3,30.01,South,185,0.0,0.0,73,0.00,,,0.00,meteohub,2013-10-08 09:47:00,
2013-10-08 04:52:00,53.6,45.1,30.01,South,185,0.0,0.0,73,0.00,,,0.00,meteohub,2013-10-08 09:52:00,
2013-10-08 04:57:00,53.4,45.3,30.01,South,185,0.0,0.0,74,0.00,,,0.00,meteohub,2013-10-08 09:57:00,
2013-10-08 05:02:00,53.2,45.1,30.01,South,185,0.0,0.0,74,0.00,,,0.00,meteohub,2013-10-08 10:02:00,
2013-10-08 05:07:00,53.1,45.3,30.01,South,185,0.0,0.0,75,0.00,,,0.00,meteohub,2013-10-08 10:07:00,
2013-10-08 05:12:00,52.7,45.0,30.00,South,185,0.0,0.0,75,0.00,,,0.00,meteohub,2013-10-08 10:12:00,
2013-10-08 05:17:00,52.5,45.1,30.01,South,185,0.0,0.0,76,0.00,,,0.00,meteohub,2013-10-08 10:17:00,
2013-10-08 05:22:00,52.3,45.3,30.01,South,185,0.0,0.0,77,0.00,,,0.00,meteohub,2013-10-08 10:22:00,
2013-10-08 05:27:00,52.2,45.1,30.01,South,185,0.0,0.0,77,0.00,,,0.00,meteohub,2013-10-08 10:27:00,
2013-10-08 05:32:00,52.2,44.4,30.00,South,185,0.0,0.0,75,0.00,,,0.00,meteohub,2013-10-08 10:32:00,
2013-10-08 05:37:00,52.3,44.2,30.01,South,185,0.0,0.0,74,0.00,,,0.00,meteohub,2013-10-08 10:37:00,
2013-10-08 05:42:00,52.3,44.2,30.01,South,185,0.0,0.0,74,0.00,,,0.00,meteohub,2013-10-08 10:42:00,
2013-10-08 05:47:00,52.3,44.2,30.01,South,185,0.0,0.0,74,0.00,,,0.00,meteohub,2013-10-08 10:47:00,
2013-10-08 05:52:00,52.3,43.9,30.01,South,185,0.0,0.0,73,0.00,,,0.00,meteohub,2013-10-08 10:52:00,
2013-10-08 05:57:00,52.2,43.7,30.01,South,185,0.0,0.0,73,0.00,,,0.00,meteohub,2013-10-08 10:57:00,
2013-10-08 06:02:00,52.2,44.1,30.01,South,185,0.0,0.0,74,0.00,,,0.00,meteohub,2013-10-08 11:02:00,
2013-10-08 06:07:00,52.0,43.9,30.01,South,185,0.0,0.0,74,0.00,,,0.00,meteohub,2013-10-08 11:07:00,
2013-10-08 06:12:00,52.0,43.5,30.01,South,185,0.0,0.0,73,0.00,,,0.00,meteohub,2013-10-08 11:12:00,
2013-10-08 06:17:00,52.0,43.5,30.01,South,185,0.0,0.0,73,0.00,,,0.00,meteohub,2013-10-08 11:17:00,
2013-10-08 06:22:00,52.0,43.9,30.01,South,185,0.0,0.0,74,0.00,,,0.00,meteohub,2013-10-08 11:22:00,
2013-10-08 06:27:00,52.0,43.9,30.01,South,185,0.0,0.0,74,0.00,,,0.00,meteohub,2013-10-08 11:27:00,
2013-10-08 06:32:00,51.8,43.7,30.01,South,185,0.0,0.0,74,0.00,,,0.00,meteohub,2013-10-08 11:32:00,
2013-10-08 06:37:00,51.6,43.9,30.01,South,185,0.0,0.0,75,0.00,,,0.00,meteohub,2013-10-08 11:37:00,
2013-10-08 06:42:00,51.4,43.7,30.01,South,185,0.0,0.0,75,0.00,,,0.00,meteohub,2013-10-08 11:42:00,
2013-10-08 06:47:00,51.4,43.7,30.01,South,185,0.0,0.0,75,0.00,,,0.00,meteohub,2013-10-08 11:47:00,
2013-10-08 06:52:00,51.3,43.5,30.02,South,185,0.0,0.0,75,0.00,,,0.00,meteohub,2013-10-08 11:52:00,
2013-10-08 06:57:00,51.1,43.2,30.02,South,185,0.0,0.0,74,0.00,,,0.00,meteohub,2013-10-08 11:57:00,
2013-10-08 07:02:00,51.1,43.2,30.02,South,185,0.0,0.0,74,0.00,,,0.00,meteohub,2013-10-08 12:02:00,
2013-10-08 07:07:00,51.1,43.2,30.02,South,185,0.0,0.0,74,0.00,,,0.00,meteohub,2013-10-08 12:07:00,
2013-10-08 07:12:00,50.9,43.3,30.02,South,185,0.0,0.0,75,0.00,,,0.00,meteohub,2013-10-08 12:12:00,
2013-10-08 07:17:00,50.9,43.3,30.02,South,185,0.0,0.0,75,0.00,,,0.00,meteohub,2013-10-08 12:17:00,
2013-10-08 07:22:00,51.1,43.5,30.02,South,185,0.0,0.0,75,0.00,,,0.00,meteohub,2013-10-08 12:22:00,
2013-10-08 07:27:00,51.3,43.3,30.03,South,185,0.0,0.0,74,0.00,,,0.00,meteohub,2013-10-08 12:27:00,
2013-10-08 07:32:00,51.3,43.5,30.03,South,185,0.0,0.0,75,0.00,,,0.00,meteohub,2013-10-08 12:32:00,
2013-10-08 07:37:00,51.3,43.5,30.03,South,185,0.0,0.0,75,0.00,,,0.00,meteohub,2013-10-08 12:37:00,
2013-10-08 07:42:00,51.3,43.5,30.03,South,185,0.0,0.0,75,0.00,,,0.00,meteohub,2013-10-08 12:42:00,
2013-10-08 07:47:00,51.3,43.9,30.03,South,185,0.0,0.0,76,0.00,,,0.00,meteohub,2013-10-08 12:47:00,
2013-10-08 07:52:00,51.3,43.9,30.03,South,185,0.0,0.0,76,0.00,,,0.00,meteohub,2013-10-08 12:52:00,
2013-10-08 07:57:00,51.3,43.9,30.03,South,185,0.0,0.0,76,0.00,,,0.00,meteohub,2013-10-08 12:57:00,
2013-10-08 08:02:00,51.1,43.7,30.03,South,185,0.0,0.0,76,0.00,,,0.00,meteohub,2013-10-08 13:02:00,
2013-10-08 08:07:00,51.1,43.7,30.03,South,185,0.0,0.0,76,0.00,,,0.00,meteohub,2013-10-08 13:07:00,
2013-10-08 08:12:00,51.3,43.9,30.02,South,185,0.0,0.0,76,0.00,,,0.00,meteohub,2013-10-08 13:12:00,
2013-10-08 08:17:00,51.3,43.9,30.02,South,185,0.0,0.0,76,0.00,,,0.00,meteohub,2013-10-08 13:17:00,
2013-10-08 08:22:00,51.6,43.9,30.03,South,185,0.0,0.0,75,0.00,,,0.00,meteohub,2013-10-08 13:22:00,
2013-10-08 08:27:00,52.0,44.2,30.03,South,185,0.0,0.0,75,0.00,,,0.00,meteohub,2013-10-08 13:27:00,
2013-10-08 08:32:00,52.5,44.4,30.03,South,185,0.0,0.0,74,0.00,,,0.00,meteohub,2013-10-08 13:32:00,
2013-10-08 08:37:00,53.1,44.6,30.02,South,185,0.0,0.0,73,0.00,,,0.00,meteohub,2013-10-08 13:37:00,
2013-10-08 08:42:00,53.6,44.8,30.02,South,185,0.0,0.0,72,0.00,,,0.00,meteohub,2013-10-08 13:42:00,
2013-10-08 08:47:00,54.1,44.6,30.03,South,185,0.0,0.0,70,0.00,,,0.00,meteohub,2013-10-08 13:47:00,
2013-10-08 08:52:00,54.9,45.0,30.03,South,185,0.0,0.0,69,0.00,,,0.00,meteohub,2013-10-08 13:52:00,
2013-10-08 08:57:00,55.6,45.1,30.03,South,185,0.0,0.0,68,0.00,,,0.00,meteohub,2013-10-08 13:57:00,
2013-10-08 09:02:00,55.8,45.3,30.03,South,185,0.0,0.0,68,0.00,,,0.00,meteohub,2013-10-08 14:02:00,
2013-10-08 09:07:00,56.5,45.7,30.03,South,185,0.0,0.0,67,0.00,,,0.00,meteohub,2013-10-08 14:07:00,
2013-10-08 09:12:00,57.6,46.8,30.03,South,185,0.0,0.0,67,0.00,,,0.00,meteohub,2013-10-08 14:12:00,
2013-10-08 09:17:00,58.6,46.6,30.03,South,185,0.0,0.0,64,0.00,,,0.00,meteohub,2013-10-08 14:17:00,
2013-10-08 09:22:00,59.7,47.1,30.03,South,185,0.0,0.0,63,0.00,,,0.00,meteohub,2013-10-08 14:22:00,
2013-10-08 09:27:00,60.6,47.1,30.03,South,186,0.0,0.0,61,0.00,,,0.00,meteohub,2013-10-08 14:27:00,
2013-10-08 09:32:00,61.5,47.5,30.03,South,185,0.0,0.0,60,0.00,,,0.00,meteohub,2013-10-08 14:32:00,
2013-10-08 09:37:00,62.4,47.5,30.03,South,185,0.0,0.0,58,0.00,,,0.00,meteohub,2013-10-08 14:37:00,
2013-10-08 09:42:00,63.3,48.4,30.03,South,185,0.0,0.0,58,0.00,,,0.00,meteohub,2013-10-08 14:42:00,
2013-10-08 09:47:00,64.0,48.9,30.04,South,185,0.0,0.0,58,0.00,,,0.00,meteohub,2013-10-08 14:47:00,
2013-10-08 09:52:00,64.4,48.4,30.03,South,185,0.0,0.0,56,0.00,,,0.00,meteohub,2013-10-08 14:52:00,
2013-10-08 09:57:00,64.2,47.7,30.03,South,185,0.0,0.0,55,0.00,,,0.00,meteohub,2013-10-08 14:57:00,
2013-10-08 10:02:00,64.6,48.6,30.03,South,185,0.0,0.0,56,0.00,,,0.00,meteohub,2013-10-08 15:02:00,
2013-10-08 10:07:00,65.3,48.7,30.03,South,185,0.0,0.0,55,0.00,,,0.00,meteohub,2013-10-08 15:07:00,
2013-10-08 10:12:00,66.0,48.9,30.03,South,187,0.0,0.0,54,0.00,,,0.00,meteohub,2013-10-08 15:12:00,
2013-10-08 10:17:00,66.9,48.2,30.03,WNW,284,0.0,0.0,51,0.00,,,0.00,meteohub,2013-10-08 15:17:00,
2013-10-08 10:22:00,67.6,47.8,30.03,WNW,284,0.0,0.0,49,0.00,,,0.00,meteohub,2013-10-08 15:22:00,
2013-10-08 10:27:00,68.5,48.6,30.03,WNW,284,0.0,1.0,49,0.00,,,0.00,meteohub,2013-10-08 15:27:00,
2013-10-08 10:32:00,68.7,48.2,30.03,WNW,284,0.0,1.0,48,0.00,,,0.00,meteohub,2013-10-08 15:32:00,
2013-10-08 10:37:00,68.5,47.5,30.03,WNW,284,0.0,2.0,47,0.00,,,0.00,meteohub,2013-10-08 15:37:00,
2013-10-08 10:42:00,69.1,48.0,30.03,WNW,284,0.0,2.0,47,0.00,,,0.00,meteohub,2013-10-08 15:42:00,
2013-10-08 10:47:00,69.4,47.1,30.03,WNW,284,0.0,2.0,45,0.00,,,0.00,meteohub,2013-10-08 15:47:00,
2013-10-08 10:52:00,69.6,46.8,30.03,WNW,284,0.0,2.0,44,0.00,,,0.00,meteohub,2013-10-08 15:52:00,
2013-10-08 10:57:00,70.5,45.7,30.02,WNW,284,0.0,0.0,41,0.00,,,0.00,meteohub,2013-10-08 15:57:00,
2013-10-08 11:02:00,71.6,45.3,30.02,WNW,283,0.0,0.0,39,0.00,,,0.00,meteohub,2013-10-08 16:02:00,
2013-10-08 11:07:00,72.3,45.3,30.02,WNW,283,0.0,4.0,38,0.00,,,0.00,meteohub,2013-10-08 16:07:00,
2013-10-08 11:12:00,73.2,45.3,30.02,WNW,283,0.0,4.0,37,0.00,,,0.00,meteohub,2013-10-08 16:12:00,
2013-10-08 11:17:00,74.1,44.8,30.02,WSW,243,0.0,6.0,35,0.00,,,0.00,meteohub,2013-10-08 16:17:00,
2013-10-08 11:22:00,74.8,45.3,30.02,WSW,243,0.0,6.0,35,0.00,,,0.00,meteohub,2013-10-08 16:22:00,
2013-10-08 11:27:00,75.6,44.4,30.02,WSW,243,0.0,6.0,33,0.00,,,0.00,meteohub,2013-10-08 16:27:00,
2013-10-08 11:32:00,75.7,42.1,30.02,SW,219,0.0,6.0,30,0.00,,,0.00,meteohub,2013-10-08 16:32:00,
2013-10-08 11:37:00,75.9,42.3,30.02,SW,223,0.0,8.0,30,0.00,,,0.00,meteohub,2013-10-08 16:37:00,
2013-10-08 11:42:00,76.3,43.3,30.02,SW,233,2.0,8.0,31,0.00,,,0.00,meteohub,2013-10-08 16:42:00,
2013-10-08 11:48:00,76.8,43.9,30.01,SW,236,8.0,8.0,31,0.00,,,0.00,meteohub,2013-10-08 16:48:00,
2013-10-08 11:53:00,76.8,42.1,30.01,WSW,248,13.0,13.0,29,0.00,,,0.00,meteohub,2013-10-08 16:53:00,
2013-10-08 11:58:00,76.5,42.8,30.01,WSW,241,7.0,10.0,30,0.00,,,0.00,meteohub,2013-10-08 16:58:00,
2013-10-08 12:03:00,76.5,42.8,30.01,SW,230,2.0,10.0,30,0.00,,,0.00,meteohub,2013-10-08 17:03:00,
2013-10-08 12:08:00,77.0,42.3,30.01,WSW,238,5.0,13.0,29,0.00,,,0.00,meteohub,2013-10-08 17:08:00,
2013-10-08 12:13:00,77.5,42.8,30.01,South,190,7.0,13.0,29,0.00,,,0.00,meteohub,2013-10-08 17:13:00,
2013-10-08 12:18:00,77.7,43.0,30.00,WSW,242,7.0,13.0,29,0.00,,,0.00,meteohub,2013-10-08 17:18:00,
2013-10-08 12:23:00,77.7,42.1,30.00,WSW,246,4.0,12.0,28,0.00,,,0.00,meteohub,2013-10-08 17:23:00,
2013-10-08 12:28:00,78.3,43.3,30.00,SW,232,1.0,12.0,29,0.00,,,0.00,meteohub,2013-10-08 17:28:00,
2013-10-08 12:33:00,79.0,43.2,30.00,West,276,6.0,10.0,28,0.00,,,0.00,meteohub,2013-10-08 17:33:00,
2013-10-08 12:38:00,79.2,43.2,30.00,SW,216,2.0,10.0,28,0.00,,,0.00,meteohub,2013-10-08 17:38:00,
2013-10-08 12:43:00,79.5,43.5,29.99,SSW,207,3.0,13.0,28,0.00,,,0.00,meteohub,2013-10-08 17:43:00,
2013-10-08 12:48:00,80.1,43.0,29.99,SSW,210,9.0,13.0,27,0.00,,,0.00,meteohub,2013-10-08 17:48:00,
2013-10-08 12:53:00,80.4,43.3,29.99,SSW,209,0.0,11.0,27,0.00,,,0.00,meteohub,2013-10-08 17:53:00,
2013-10-08 12:59:00,81.0,44.8,29.98,WSW,243,4.0,11.0,28,0.00,,,0.00,meteohub,2013-10-08 17:59:00,
2013-10-08 13:04:00,81.7,44.4,29.98,SW,215,1.0,11.0,27,0.00,,,0.00,meteohub,2013-10-08 18:04:00,
2013-10-08 13:09:00,82.2,43.9,29.98,South,190,4.0,9.0,26,0.00,,,0.00,meteohub,2013-10-08 18:09:00,
2013-10-08 13:14:00,82.8,43.3,29.98,SW,225,2.0,9.0,25,0.00,,,0.00,meteohub,2013-10-08 18:14:00,
2013-10-08 13:19:00,83.3,43.9,29.97,WSW,252,0.0,9.0,25,0.00,,,0.00,meteohub,2013-10-08 18:19:00,
2013-10-08 13:24:00,83.5,43.9,29.97,ESE,118,0.0,9.0,25,0.00,,,0.00,meteohub,2013-10-08 18:24:00,
2013-10-08 13:29:00,83.7,43.0,29.97,SW,233,6.0,9.0,24,0.00,,,0.00,meteohub,2013-10-08 18:29:00,
2013-10-08 13:34:00,83.7,44.1,29.97,SSW,203,7.0,10.0,25,0.00,,,0.00,meteohub,2013-10-08 18:34:00,
2013-10-08 13:39:00,83.7,43.0,29.96,SW,215,2.0,10.0,24,0.00,,,0.00,meteohub,2013-10-08 18:39:00,
2013-10-08 13:44:00,83.7,43.0,29.96,SW,225,0.0,10.0,24,0.00,,,0.00,meteohub,2013-10-08 18:44:00,
2013-10-08 13:49:00,84.0,42.3,29.96,SSW,213,3.0,10.0,23,0.00,,,0.00,meteohub,2013-10-08 18:49:00,
2013-10-08 13:54:00,84.2,42.4,29.95,South,169,0.0,10.0,23,0.00,,,0.00,meteohub,2013-10-08 18:54:00,
2013-10-08 13:59:00,84.6,41.5,29.95,South,185,4.0,9.0,22,0.00,,,0.00,meteohub,2013-10-08 18:59:00,
2013-10-08 14:04:00,84.7,41.7,29.94,SW,227,5.0,7.0,22,0.00,,,0.00,meteohub,2013-10-08 19:04:00,
2013-10-08 14:09:00,85.3,42.1,29.95,SW,227,4.0,7.0,22,0.00,,,0.00,meteohub,2013-10-08 19:09:00,
2013-10-08 14:14:00,85.6,41.2,29.94,SSW,194,0.0,7.0,21,0.00,,,0.00,meteohub,2013-10-08 19:14:00,
2013-10-08 14:19:00,85.6,41.2,29.94,South,178,9.0,11.0,21,0.00,,,0.00,meteohub,2013-10-08 19:19:00,
2013-10-08 14:24:00,85.3,42.1,29.94,South,189,1.0,13.0,22,0.00,,,0.00,meteohub,2013-10-08 19:24:00,
2013-10-08 14:29:00,85.3,43.3,29.93,South,191,3.0,13.0,23,0.00,,,0.00,meteohub,2013-10-08 19:29:00,
2013-10-08 14:34:00,85.5,41.0,29.93,SW,229,6.0,13.0,21,0.00,,,0.00,meteohub,2013-10-08 19:34:00,
2013-10-08 14:39:00,85.3,42.1,29.93,SSE,150,4.0,9.0,22,0.00,,,0.00,meteohub,2013-10-08 19:39:00,
2013-10-08 14:44:00,85.5,42.3,29.93,SW,215,1.0,10.0,22,0.00,,,0.00,meteohub,2013-10-08 19:44:00,
2013-10-08 14:49:00,85.5,41.0,29.92,SW,219,1.0,10.0,21,0.00,,,0.00,meteohub,2013-10-08 19:49:00,
2013-10-08 14:54:00,85.3,42.1,29.92,SSE,148,2.0,10.0,22,0.00,,,0.00,meteohub,2013-10-08 19:54:00,
2013-10-08 14:59:00,84.9,43.0,29.92,South,180,4.0,8.0,23,0.00,,,0.00,meteohub,2013-10-08 19:59:00,
2013-10-08 15:04:00,85.1,43.2,29.92,SSE,161,0.0,11.0,23,0.00,,,0.00,meteohub,2013-10-08 20:04:00,
2013-10-08 15:09:00,85.3,42.1,29.92,WSW,240,1.0,11.0,22,0.00,,,0.00,meteohub,2013-10-08 20:09:00,
2013-10-08 15:14:00,85.6,41.2,29.91,SSW,198,2.0,11.0,21,0.00,,,0.00,meteohub,2013-10-08 20:14:00,
2013-10-08 15:19:00,85.6,42.4,29.91,SSW,204,0.0,9.0,22,0.00,,,0.00,meteohub,2013-10-08 20:19:00,
2013-10-08 15:24:00,85.6,42.4,29.91,SSW,209,6.0,12.0,22,0.00,,,0.00,meteohub,2013-10-08 20:24:00,
2013-10-08 15:29:00,85.8,41.4,29.91,South,174,7.0,12.0,21,0.00,,,0.00,meteohub,2013-10-08 20:29:00,
2013-10-08 15:34:00,85.8,42.6,29.91,WSW,240,2.0,12.0,22,0.00,,,0.00,meteohub,2013-10-08 20:34:00,
2013-10-08 15:39:00,86.2,41.7,29.91,ESE,122,5.0,12.0,21,0.00,,,0.00,meteohub,2013-10-08 20:39:00,
2013-10-08 15:44:00,86.2,40.5,29.91,South,185,6.0,12.0,20,0.00,,,0.00,meteohub,2013-10-08 20:44:00,
2013-10-08 15:49:00,86.4,41.9,29.91,SSE,165,1.0,12.0,21,0.00,,,0.00,meteohub,2013-10-08 20:49:00,
2013-10-08 15:54:00,86.5,41.9,29.91,South,171,6.0,12.0,21,0.00,,,0.00,meteohub,2013-10-08 20:54:00,
2013-10-08 15:59:00,86.7,43.3,29.91,SSW,196,5.0,11.0,22,0.00,,,0.00,meteohub,2013-10-08 20:59:00,
2013-10-08 16:04:00,86.5,41.9,29.91,WSW,247,5.0,9.0,21,0.00,,,0.00,meteohub,2013-10-08 21:04:00,
2013-10-08 16:09:00,86.5,41.9,29.91,SSW,208,9.0,9.0,21,0.00,,,0.00,meteohub,2013-10-08 21:09:00,
2013-10-08 16:14:00,86.4,41.9,29.91,SW,233,4.0,9.0,21,0.00,,,0.00,meteohub,2013-10-08 21:14:00,
2013-10-08 16:19:00,86.4,41.9,29.90,SSW,192,1.0,9.0,21,0.00,,,0.00,meteohub,2013-10-08 21:19:00,
2013-10-08 16:24:00,86.4,41.9,29.90,SSW,198,0.0,9.0,21,0.00,,,0.00,meteohub,2013-10-08 21:24:00,
2013-10-08 16:29:00,86.2,41.7,29.90,SW,215,5.0,9.0,21,0.00,,,0.00,meteohub,2013-10-08 21:29:00,
2013-10-08 16:34:00,85.8,41.4,29.90,SSW,197,0.0,9.0,21,0.00,,,0.00,meteohub,2013-10-08 21:34:00,
2013-10-08 16:39:00,85.6,42.4,29.90,SSE,159,2.0,7.0,22,0.00,,,0.00,meteohub,2013-10-08 21:39:00,
2013-10-08 16:45:00,85.3,42.1,29.90,SSE,150,2.0,10.0,22,0.00,,,0.00,meteohub,2013-10-08 21:45:00,
2013-10-08 16:50:00,84.7,41.7,29.90,SW,223,0.0,10.0,22,0.00,,,0.00,meteohub,2013-10-08 21:50:00,
2013-10-08 16:55:00,84.4,41.4,29.90,SW,230,0.0,10.0,22,0.00,,,0.00,meteohub,2013-10-08 21:55:00,
2013-10-08 17:00:00,84.2,41.2,29.90,SSW,201,0.0,8.0,22,0.00,,,0.00,meteohub,2013-10-08 22:00:00,
2013-10-08 17:05:00,84.7,41.7,29.89,SW,223,0.0,6.0,22,0.00,,,0.00,meteohub,2013-10-08 22:05:00,
2013-10-08 17:10:00,85.1,41.9,29.89,SW,229,1.0,7.0,22,0.00,,,0.00,meteohub,2013-10-08 22:10:00,
2013-10-08 17:15:00,85.5,42.3,29.89,SSW,210,2.0,8.0,22,0.00,,,0.00,meteohub,2013-10-08 22:15:00,
2013-10-08 17:20:00,85.6,42.4,29.89,SSW,205,0.0,8.0,22,0.00,,,0.00,meteohub,2013-10-08 22:20:00,
2013-10-08 17:25:00,85.6,42.4,29.89,South,181,0.0,8.0,22,0.00,,,0.00,meteohub,2013-10-08 22:25:00,
2013-10-08 17:30:00,85.6,42.4,29.89,WSW,243,0.0,8.0,22,0.00,,,0.00,meteohub,2013-10-08 22:30:00,
2013-10-08 17:35:00,85.5,41.0,29.88,SSW,198,0.0,7.0,21,0.00,,,0.00,meteohub,2013-10-08 22:35:00,
2013-10-08 17:40:00,84.7,41.7,29.88,SE,136,1.0,7.0,22,0.00,,,0.00,meteohub,2013-10-08 22:40:00,
2013-10-08 17:45:00,84.4,41.4,29.89,SSW,198,0.0,11.0,22,0.00,,,0.00,meteohub,2013-10-08 22:45:00,
2013-10-08 17:50:00,84.2,41.2,29.89,SSW,192,0.0,11.0,22,0.00,,,0.00,meteohub,2013-10-08 22:50:00,
2013-10-08 17:55:00,84.2,43.5,29.88,SW,223,0.0,9.0,24,0.00,,,0.00,meteohub,2013-10-08 22:55:00,
2013-10-08 18:00:00,84.4,41.4,29.89,SSW,198,2.0,9.0,22,0.00,,,0.00,meteohub,2013-10-08 23:00:00,
2013-10-08 18:05:00,84.0,41.0,29.89,SSE,161,1.0,9.0,22,0.00,,,0.00,meteohub,2013-10-08 23:05:00,
2013-10-08 18:10:00,84.0,42.3,29.88,South,186,1.0,8.0,23,0.00,,,0.00,meteohub,2013-10-08 23:10:00,
2013-10-08 18:15:00,83.8,42.1,29.88,SSE,148,2.0,8.0,23,0.00,,,0.00,meteohub,2013-10-08 23:15:00,
2013-10-08 18:20:00,83.5,41.7,29.88,SSE,165,0.0,8.0,23,0.00,,,0.00,meteohub,2013-10-08 23:20:00,
2013-10-08 18:25:00,82.9,41.4,29.89,SSE,166,1.0,8.0,23,0.00,,,0.00,meteohub,2013-10-08 23:25:00,
2013-10-08 18:30:00,82.4,41.9,29.89,South,188,4.0,8.0,24,0.00,,,0.00,meteohub,2013-10-08 23:30:00,
2013-10-08 18:35:00,81.9,42.6,29.89,South,188,0.0,7.0,25,0.00,,,0.00,meteohub,2013-10-08 23:35:00,
2013-10-08 18:40:00,81.5,43.3,29.88,South,186,0.0,7.0,26,0.00,,,0.00,meteohub,2013-10-08 23:40:00,
2013-10-08 18:45:00,81.1,43.0,29.88,South,186,0.0,7.0,26,0.00,,,0.00,meteohub,2013-10-08 23:45:00,
2013-10-08 18:50:00,81.1,44.1,29.89,South,173,0.0,3.0,27,0.00,,,0.00,meteohub,2013-10-08 23:50:00,
2013-10-08 18:55:00,81.0,43.9,29.89,South,172,2.0,3.0,27,0.00,,,0.00,meteohub,2013-10-08 23:55:00,
2013-10-08 19:00:00,80.4,43.3,29.89,South,170,0.0,5.0,27,0.00,,,0.00,meteohub,2013-10-09 00:00:00,
2013-10-08 19:05:00,80.1,43.0,29.89,South,182,0.0,5.0,27,0.00,,,0.00,meteohub,2013-10-09 00:05:00,
2013-10-08 19:10:00,79.5,43.5,29.89,South,173,2.0,5.0,28,0.00,,,0.00,meteohub,2013-10-09 00:10:00,
2013-10-08 19:15:00,79.2,43.2,29.89,South,173,2.0,4.0,28,0.00,,,0.00,meteohub,2013-10-09 00:15:00,
2013-10-08 19:20:00,78.4,43.5,29.89,South,173,0.0,4.0,29,0.00,,,0.00,meteohub,2013-10-09 00:20:00,
2013-10-08 19:25:00,78.1,43.2,29.89,South,173,4.0,4.0,29,0.00,,,0.00,meteohub,2013-10-09 00:25:00,
2013-10-08 19:30:00,77.4,43.5,29.89,South,173,0.0,5.0,30,0.00,,,0.00,meteohub,2013-10-09 00:30:00,
2013-10-08 19:35:00,76.8,43.9,29.89,South,173,0.0,5.0,31,0.00,,,0.00,meteohub,2013-10-09 00:35:00,
2013-10-08 19:40:00,76.5,43.5,29.89,South,173,0.0,5.0,31,0.00,,,0.00,meteohub,2013-10-09 00:40:00,
2013-10-08 19:45:00,75.9,43.9,29.89,South,173,0.0,5.0,32,0.00,,,0.00,meteohub,2013-10-09 00:45:00,
2013-10-08 19:50:00,75.6,44.4,29.90,South,173,0.0,0.0,33,0.00,,,0.00,meteohub,2013-10-09 00:50:00,
2013-10-08 19:55:00,74.8,43.9,29.89,South,173,0.0,0.0,33,0.00,,,0.00,meteohub,2013-10-09 00:55:00,
2013-10-08 20:00:00,74.3,43.3,29.89,SSW,202,0.0,0.0,33,0.00,,,0.00,meteohub,2013-10-09 01:00:00,
2013-10-08 20:05:00,73.9,43.9,29.90,SSW,202,1.0,3.0,34,0.00,,,0.00,meteohub,2013-10-09 01:05:00,
2013-10-08 20:10:00,73.6,43.5,29.90,SSW,192,3.0,4.0,34,0.00,,,0.00,meteohub,2013-10-09 01:10:00,
2013-10-08 20:15:00,73.4,43.3,29.89,SSE,156,0.0,4.0,34,0.00,,,0.00,meteohub,2013-10-09 01:15:00,
2013-10-08 20:20:00,73.2,43.9,29.89,SSE,154,0.0,6.0,35,0.00,,,0.00,meteohub,2013-10-09 01:20:00,
2013-10-08 20:25:00,73.0,43.7,29.90,SE,146,0.0,6.0,35,0.00,,,0.00,meteohub,2013-10-09 01:25:00,
2013-10-08 20:30:00,72.9,43.5,29.90,SE,145,0.0,6.0,35,0.00,,,0.00,meteohub,2013-10-09 01:30:00,
2013-10-08 20:35:00,72.5,44.1,29.90,SE,142,0.0,5.0,36,0.00,,,0.00,meteohub,2013-10-09 01:35:00,
2013-10-08 20:40:00,72.1,43.7,29.90,SE,140,1.0,5.0,36,0.00,,,0.00,meteohub,2013-10-09 01:40:00,
2013-10-08 20:45:00,72.0,44.2,29.90,SE,140,1.0,7.0,37,0.00,,,0.00,meteohub,2013-10-09 01:45:00,
2013-10-08 20:50:00,71.8,44.1,29.90,ESE,121,0.0,7.0,37,0.00,,,0.00,meteohub,2013-10-09 01:50:00,
2013-10-08 20:55:00,71.4,43.7,29.90,SE,128,1.0,7.0,37,0.00,,,0.00,meteohub,2013-10-09 01:55:00,
2013-10-08 21:00:00,71.1,44.2,29.90,SE,136,0.0,7.0,38,0.00,,,0.00,meteohub,2013-10-09 02:00:00,
2013-10-08 21:05:00,70.9,44.1,29.90,SE,146,4.0,6.0,38,0.00,,,0.00,meteohub,2013-10-09 02:05:00,
2013-10-08 21:10:00,70.5,44.4,29.90,SE,130,0.0,6.0,39,0.00,,,0.00,meteohub,2013-10-09 02:10:00,
2013-10-08 21:15:00,70.3,44.2,29.90,SE,130,1.0,7.0,39,0.00,,,0.00,meteohub,2013-10-09 02:15:00,
2013-10-08 21:20:00,70.2,44.8,29.90,SE,130,0.0,7.0,40,0.00,,,0.00,meteohub,2013-10-09 02:20:00,
2013-10-08 21:25:00,70.0,44.6,29.91,SE,130,0.0,6.0,40,0.00,,,0.00,meteohub,2013-10-09 02:25:00,
2013-10-08 21:30:00,69.6,44.2,29.90,SE,130,5.0,6.0,40,0.00,,,0.00,meteohub,2013-10-09 02:30:00,
2013-10-08 21:35:00,69.4,44.8,29.90,SE,126,1.0,6.0,41,0.00,,,0.00,meteohub,2013-10-09 02:35:00,
2013-10-08 21:40:00,69.1,45.0,29.91,SSE,155,6.0,7.0,42,0.00,,,0.00,meteohub,2013-10-09 02:40:00,
2013-10-08 21:46:00,68.7,44.8,29.91,SSE,167,0.0,7.0,42,0.00,,,0.00,meteohub,2013-10-09 02:46:00,
2013-10-08 21:51:00,68.5,44.6,29.91,SE,136,0.0,7.0,42,0.00,,,0.00,meteohub,2013-10-09 02:51:00,
2013-10-08 21:56:00,68.4,45.0,29.91,SE,138,0.0,7.0,43,0.00,,,0.00,meteohub,2013-10-09 02:56:00,
2013-10-08 22:01:00,68.0,44.6,29.91,SE,138,0.0,7.0,43,0.00,,,0.00,meteohub,2013-10-09 03:01:00,
2013-10-08 22:06:00,67.6,45.0,29.91,SE,138,0.0,6.0,44,0.00,,,0.00,meteohub,2013-10-09 03:06:00,
2013-10-08 22:11:00,67.3,44.6,29.91,SE,138,0.0,4.0,44,0.00,,,0.00,meteohub,2013-10-09 03:11:00,
2013-10-08 22:16:00,66.9,45.0,29.91,SE,138,0.0,1.0,45,0.00,,,0.00,meteohub,2013-10-09 03:16:00,
2013-10-08 22:21:00,66.7,45.3,29.91,SE,138,0.0,1.0,46,0.00,,,0.00,meteohub,2013-10-09 03:21:00,
2013-10-08 22:26:00,66.4,45.0,29.91,SE,138,0.0,1.0,46,0.00,,,0.00,meteohub,2013-10-09 03:26:00,
2013-10-08 22:31:00,66.0,45.1,29.91,SE,138,0.0,0.0,47,0.00,,,0.00,meteohub,2013-10-09 03:31:00,
2013-10-08 22:36:00,65.8,45.0,29.91,SE,138,0.0,0.0,47,0.00,,,0.00,meteohub,2013-10-09 03:36:00,
2013-10-08 22:41:00,65.7,45.5,29.91,SE,138,0.0,0.0,48,0.00,,,0.00,meteohub,2013-10-09 03:41:00,
2013-10-08 22:46:00,65.1,44.4,29.91,SE,138,0.0,0.0,47,0.00,,,0.00,meteohub,2013-10-09 03:46:00,
2013-10-08 22:51:00,64.9,44.8,29.91,SE,138,0.0,0.0,48,0.00,,,0.00,meteohub,2013-10-09 03:51:00,
2013-10-08 22:56:00,64.9,44.8,29.91,SE,138,0.0,0.0,48,0.00,,,0.00,meteohub,2013-10-09 03:56:00,
2013-10-08 23:01:00,64.8,45.1,29.91,SE,138,0.0,0.0,49,-99.99,,,0.00,meteohub,2013-10-09 04:01:00,
2013-10-08 23:03:00,64.6,45.0,29.91,SE,138,0.0,0.0,49,0.00,,,0.00,meteohub,2013-10-09 04:03:00,
2013-10-08 23:08:00,64.2,45.1,29.91,SE,138,0.0,0.0,50,0.00,,,0.00,meteohub,2013-10-09 04:08:00,
2013-10-08 23:13:00,64.0,44.4,29.91,SE,138,0.0,0.0,49,0.00,,,0.00,meteohub,2013-10-09 04:13:00,
2013-10-08 23:18:00,64.0,44.4,29.91,SE,138,0.0,4.0,49,0.00,,,0.00,meteohub,2013-10-09 04:18:00,
2013-10-08 23:23:00,63.9,45.3,29.91,SE,134,0.0,4.0,51,0.00,,,0.00,meteohub,2013-10-09 04:23:00,
2013-10-08 23:28:00,63.7,44.8,29.91,SE,136,0.0,5.0,50,0.00,,,0.00,meteohub,2013-10-09 04:28:00,
2013-10-08 23:33:00,63.9,44.2,29.91,SSE,153,0.0,5.0,49,0.00,,,0.00,meteohub,2013-10-09 04:33:00,
2013-10-08 23:38:00,63.9,44.2,29.91,SSE,153,0.0,5.0,49,0.00,,,0.00,meteohub,2013-10-09 04:38:00,
2013-10-08 23:43:00,63.9,44.8,29.91,SSE,153,0.0,4.0,50,0.00,,,0.00,meteohub,2013-10-09 04:43:00,
2013-10-08 23:48:00,63.9,44.8,29.91,SSE,153,0.0,2.0,50,0.00,,,0.00,meteohub,2013-10-09 04:48:00,
2013-10-08 23:53:00,63.7,45.1,29.91,SSE,153,0.0,2.0,51,0.00,,,0.00,meteohub,2013-10-09 04:53:00,
2013-10-08 23:58:00,63.5,45.0,29.91,SSE,153,0.0,5.0,51,0.00,,,0.00,meteohub,2013-10-09 04:58:00,